Time;durP1;ratioP1;P1;durP2;ratioP2;P2;SDS_P1;SDS_P2;PMS_P1;PMS_P2;Temp;Humidity;BMP_temperature;BMP_pressure;BME280_temperature;BME280_humidity;BME280_pressure;Samples;Min_cycle;Max_cycle;Signal;HPM_P1;HPM_P2
2021/07/02 00:02:13;;;;;;;;;;;;;;;;;;5107871;28;20349;-82
2021/07/02 00:04:39;;;;;;;;;;;;;;;;;;5110286;28;19915;-83
2021/07/02 00:07:05;;;;;;;;;;;;;;;;;;5109844;28;19990;-82
2021/07/02 00:09:31;;;;;;;;;;;;;;;;;;5104006;28;19908;-83
2021/07/02 00:11:57;;;;;;;;;;;;;;;;;;5109338;28;19907;-83
2021/07/02 00:14:23;;;;;;;;;;;;;;;;;;5111761;28;20265;-83
2021/07/02 00:16:49;;;;;;;;;;;;;;;;;;5109778;28;19914;-83
2021/07/02 00:19:15;;;;;;;;;;;;;;;;;;5109533;28;20284;-82
2021/07/02 00:21:40;;;;;;;;;;;;;;;;;;5111002;28;19949;-83
2021/07/02 00:24:06;;;;;;;;;;;;;;;;;;5098024;28;19954;-83
2021/07/02 00:26:35;;;;;;;;;;;;;;;;;;5088866;28;19912;-83
2021/07/02 00:29:01;;;;;;;;;;;;;;;;;;5090861;28;20365;-83
2021/07/02 00:31:27;;;;;;;;;;;;;;;;;;5093587;28;19912;-83
2021/07/02 00:33:52;;;;;;;;;;;;;;;;;;5106285;28;19926;-83
2021/07/02 00:36:18;;;;;;;;;;;;;;;;;;5109740;28;19966;-83
2021/07/02 00:38:44;;;;;;;;;;;;;;;;;;5109477;28;19954;-82
2021/07/02 00:41:10;;;;;;;;;;;;;;;;;;5111720;28;19907;-83
2021/07/02 00:43:38;;;;;;;;;;;;;;;;;;5110483;28;20375;-83
2021/07/02 00:46:03;;;;;;;;;;;;;;;;;;5112338;28;19919;-83
2021/07/02 00:48:29;;;;;;;;;;;;;;;;;;5110053;28;19908;-83
2021/07/02 00:50:55;;;;;;;;;;;;;;;;;;5112752;28;20003;-84
2021/07/02 00:53:22;;;;;;;;;;;;;;;;;;5095888;28;19923;-82
2021/07/02 00:55:48;;;;;;;;;;;;;;;;;;5106231;28;19919;-84
2021/07/02 00:58:14;;;;;;;;;;;;;;;;;;5110005;28;19908;-83
2021/07/02 01:00:40;;;;;;;;;;;;;;;;;;5109373;28;19922;-84
2021/07/02 01:03:05;;;;;;;;;;;;;;;;;;5111770;28;20366;-83
2021/07/02 01:05:31;;;;;;;;;;;;;;;;;;5112748;28;19916;-83
2021/07/02 01:07:57;;;;;;;;;;;;;;;;;;5115032;28;20433;-83
2021/07/02 01:10:23;;;;;;;;;;;;;;;;;;5115641;28;19907;-84
2021/07/02 01:12:49;;;;;;;;;;;;;;;;;;5113783;28;19923;-83
2021/07/02 01:15:15;;;;;;;;;;;;;;;;;;5115769;28;19930;-84
2021/07/02 01:17:41;;;;;;;;;;;;;;;;;;5115510;28;19908;-82
2021/07/02 01:20:07;;;;;;;;;;;;;;;;;;5115418;28;19927;-84
2021/07/02 01:22:32;;;;;;;;;;;;;;;;;;5113354;28;19951;-83
2021/07/02 01:24:58;;;;;;;;;;;;;;;;;;5113857;28;20357;-84
2021/07/02 01:27:24;;;;;;;;;;;;;;;;;;5115071;28;20278;-83
2021/07/02 01:29:50;;;;;;;;;;;;;;;;;;5095331;28;19912;-83
2021/07/02 01:32:16;;;;;;;;;;;;;;;;;;5114889;28;20242;-83
2021/07/02 01:34:42;;;;;;;;;;;;;;;;;;5108595;28;19908;-84
2021/07/02 01:37:08;;;;;;;;;;;;;;;;;;5095179;28;19923;-83
2021/07/02 01:39:34;;;;;;;;;;;;;;;;;;5099862;28;19908;-84
2021/07/02 01:42:00;;;;;;;;;;;;;;;;;;5095442;28;19910;-83
2021/07/02 01:44:26;;;;;;;;;;;;;;;;;;5113581;28;19912;-84
2021/07/02 01:46:52;;;;;;;;;;;;;;;;;;5114348;28;20395;-84
2021/07/02 01:49:18;;;;;;;;;;;;;;;;;;5113875;28;19915;-83
2021/07/02 01:51:43;;;;;;;;;;;;;;;;;;5095281;28;19903;-83
2021/07/02 01:54:09;;;;;;;;;;;;;;;;;;5095657;28;19955;-84
2021/07/02 01:56:35;;;;;;;;;;;;;;;;;;5114537;28;19919;-83
2021/07/02 01:59:01;;;;;;;;;;;;;;;;;;5114148;28;19908;-84
2021/07/02 02:01:27;;;;;;;;;;;;;;;;;;5112734;28;20258;-82
2021/07/02 02:03:53;;;;;;;;;;;;;;;;;;5095052;28;19911;-82
2021/07/02 02:06:19;;;;;;;;;;;;;;;;;;5115094;28;20263;-82
2021/07/02 02:08:45;;;;;;;;;;;;;;;;;;5115440;28;20012;-81
2021/07/02 02:11:11;;;;;;;;;;;;;;;;;;5113963;28;19908;-82
2021/07/02 02:13:37;;;;;;;;;;;;;;;;;;5092029;28;19959;-82
2021/07/02 02:16:03;;;;;;;;;;;;;;;;;;5113501;28;20376;-82
2021/07/02 02:18:28;;;;;;;;;;;;;;;;;;5115275;28;20387;-83
2021/07/02 02:20:54;;;;;;;;;;;;;;;;;;5115056;28;19904;-82
2021/07/02 02:23:20;;;;;;;;;;;;;;;;;;5114927;28;19978;-82
2021/07/02 02:25:46;;;;;;;;;;;;;;;;;;5113818;28;19954;-83
2021/07/02 02:28:12;;;;;;;;;;;;;;;;;;5113288;28;20329;-83
2021/07/02 02:30:38;;;;;;;;;;;;;;;;;;5112705;28;19911;-83
2021/07/02 02:33:05;;;;;;;;;;;;;;;;;;5112820;28;20456;-82
2021/07/02 02:35:31;;;;;;;;;;;;;;;;;;5113155;28;19961;-84
2021/07/02 02:37:57;;;;;;;;;;;;;;;;;;5114594;28;19908;-84
2021/07/02 02:40:23;;;;;;;;;;;;;;;;;;5113935;28;20319;-83
2021/07/02 02:42:49;;;;;;;;;;;;;;;;;;5110763;28;19912;-83
2021/07/02 02:45:14;;;;;;;;;;;;;;;;;;5099449;28;20449;-85
2021/07/02 02:47:40;;;;;;;;;;;;;;;;;;5094199;28;19904;-85
2021/07/02 02:50:06;;;;;;;;;;;;;;;;;;5098737;28;19982;-84
2021/07/02 02:52:32;;;;;;;;;;;;;;;;;;5113785;28;20006;-85
2021/07/02 02:54:58;;;;;;;;;;;;;;;;;;5112074;28;19927;-84
2021/07/02 02:57:24;;;;;;;;;;;;;;;;;;5112894;28;20405;-84
2021/07/02 02:59:50;;;;;;;;;;;;;;;;;;5113206;28;19916;-84
2021/07/02 03:02:16;;;;;;;;;;;;;;;;;;5095082;28;20383;-85
2021/07/02 03:04:42;;;;;;;;;;;;;;;;;;5095688;28;19954;-84
2021/07/02 03:07:07;;;;;;;;;;;;;;;;;;5114164;28;19903;-84
2021/07/02 03:09:33;;;;;;;;;;;;;;;;;;5112916;28;19927;-84
2021/07/02 03:11:59;;;;;;;;;;;;;;;;;;5095946;28;19904;-85
2021/07/02 03:14:25;;;;;;;;;;;;;;;;;;5113264;28;19915;-84
2021/07/02 03:16:51;;;;;;;;;;;;;;;;;;5114349;28;19916;-85
2021/07/02 03:19:17;;;;;;;;;;;;;;;;;;5113743;28;19914;-85
2021/07/02 03:21:43;;;;;;;;;;;;;;;;;;5113042;27;19907;-85
2021/07/02 03:24:09;;;;;;;;;;;;;;;;;;5114651;28;19933;-85
2021/07/02 03:26:34;;;;;;;;;;;;;;;;;;5103662;28;19915;-84
2021/07/02 03:29:01;;;;;;;;;;;;;;;;;;5107716;28;20367;-84
2021/07/02 03:31:27;;;;;;;;;;;;;;;;;;5112124;28;19919;-84
2021/07/02 03:33:53;;;;;;;;;;;;;;;;;;5113006;28;20391;-84
2021/07/02 03:36:19;;;;;;;;;;;;;;;;;;5113774;28;19907;-84
2021/07/02 03:38:45;;;;;;;;;;;;;;;;;;5113762;28;19934;-83
2021/07/02 03:41:11;;;;;;;;;;;;;;;;;;5096100;28;19903;-83
2021/07/02 03:43:37;;;;;;;;;;;;;;;;;;5111653;28;20006;-83
2021/07/02 03:46:03;;;;;;;;;;;;;;;;;;5112911;28;19911;-83
2021/07/02 03:48:28;;;;;;;;;;;;;;;;;;5093484;28;19973;-83
2021/07/02 03:50:54;;;;;;;;;;;;;;;;;;5111628;28;19916;-84
2021/07/02 03:53:20;;;;;;;;;;;;;;;;;;5112034;28;20342;-83
2021/07/02 03:55:46;;;;;;;;;;;;;;;;;;5112239;28;19920;-83
2021/07/02 03:58:13;;;;;;;;;;;;;;;;;;5112708;28;19966;-83
2021/07/02 04:00:39;;;;;;;;;;;;;;;;;;5108917;28;20342;-83
2021/07/02 04:03:05;;;;;;;;;;;;;;;;;;5110958;28;19922;-84
2021/07/02 04:05:31;;;;;;;;;;;;;;;;;;5114960;28;19912;-83
2021/07/02 04:07:56;;;;;;;;;;;;;;;;;;5100216;28;20023;-84
2021/07/02 04:10:22;;;;;;;;;;;;;;;;;;5093932;28;19919;-84
2021/07/02 04:12:48;;;;;;;;;;;;;;;;;;5109668;28;20382;-81
2021/07/02 04:15:14;;;;;;;;;;;;;;;;;;5113812;28;19923;-82
2021/07/02 04:17:40;;;;;;;;;;;;;;;;;;5097193;28;19904;-82
2021/07/02 04:20:06;;;;;;;;;;;;;;;;;;5094709;28;19916;-82
2021/07/02 04:22:32;;;;;;;;;;;;;;;;;;5108721;28;19914;-83
2021/07/02 04:24:58;;;;;;;;;;;;;;;;;;5110539;28;20257;-83
2021/07/02 04:27:24;;;;;;;;;;;;;;;;;;5092126;28;19939;-82
2021/07/02 04:29:49;;;;;;;;;;;;;;;;;;5113665;28;19904;-82
2021/07/02 04:32:15;;;;;;;;;;;;;;;;;;5114119;28;20021;-82
2021/07/02 04:34:41;;;;;;;;;;;;;;;;;;5118804;28;19951;-82
2021/07/02 04:37:07;;;;;;;;;;;;;;;;;;5118637;28;19933;-83
2021/07/02 04:39:33;;;;;;;;;;;;;;;;;;5101541;28;20318;-82
2021/07/02 04:41:59;;;;;;;;;;;;;;;;;;5119162;28;19910;-82
2021/07/02 04:44:25;;;;;;;;;;;;;;;;;;5117774;28;20306;-82
2021/07/02 04:46:50;;;;;;;;;;;;;;;;;;5117337;28;19998;-83
2021/07/02 04:49:16;;;;;;;;;;;;;;;;;;5103733;28;20049;-82
2021/07/02 04:51:42;;;;;;;;;;;;;;;;;;5113141;28;19908;-82
2021/07/02 04:54:08;;;;;;;;;;;;;;;;;;5120352;28;19916;-83
2021/07/02 04:56:34;;;;;;;;;;;;;;;;;;5120206;28;20369;-85
2021/07/02 04:59:01;;;;;;;;;;;;;;;;;;5118510;28;19907;-85
2021/07/02 05:01:27;;;;;;;;;;;;;;;;;;5117789;28;19989;-84
2021/07/02 05:03:53;;;;;;;;;;;;;;;;;;5099461;28;19919;-83
2021/07/02 05:06:19;;;;;;;;;;;;;;;;;;5117665;28;19916;-85
2021/07/02 05:08:44;;;;;;;;;;;;;;;;;;5113170;28;20558;-84
2021/07/02 05:11:10;;;;;;;;;;;;;;;;;;5094953;28;19911;-84
2021/07/02 05:13:37;;;;;;;;;;;;;;;;;;5112432;28;19950;-83
2021/07/02 05:16:03;;;;;;;;;;;;;;;;;;5088693;28;19915;-85
2021/07/02 05:18:29;;;;;;;;;;;;;;;;;;5119558;27;20296;-84
2021/07/02 05:20:54;;;;;;;;;;;;;;;;;;5137832;27;19927;-85
2021/07/02 05:23:20;;;;;;;;;;;;;;;;;;5123121;27;19939;-85
2021/07/02 05:25:46;;;;;;;;;;;;;;;;;;5114556;28;19911;-82
2021/07/02 05:28:12;;;;;;;;;;;;;;;;;;5113499;28;19916;-84
2021/07/02 05:30:38;;;;;;;;;;;;;;;;;;5114392;28;19970;-83
2021/07/02 05:33:04;;;;;;;;;;;;;;;;;;5112479;28;19919;-83
2021/07/02 05:35:30;;;;;;;;;;;;;;;;;;5101524;28;20387;-83
2021/07/02 05:37:56;;;;;;;;;;;;;;;;;;5096330;28;19904;-83
2021/07/02 05:40:21;;;;;;;;;;;;;;;;;;5116580;27;19904;-83
2021/07/02 05:42:47;;;;;;;;;;;;;;;;;;5096746;28;19907;-83
2021/07/02 05:45:13;;;;;;;;;;;;;;;;;;5123190;27;19915;-84
2021/07/02 05:47:40;;;;;;;;;;;;;;;;;;5131111;27;19922;-84
2021/07/02 05:50:06;;;;;;;;;;;;;;;;;;5102378;28;19918;-83
2021/07/02 05:52:32;;;;;;;;;;;;;;;;;;5110114;28;19912;-84
2021/07/02 05:54:58;;;;;;;;;;;;;;;;;;5111612;28;19916;-83
2021/07/02 05:57:24;;;;;;;;;;;;;;;;;;5111611;27;19915;-84
2021/07/02 05:59:50;;;;;;;;;;;;;;;;;;5111088;28;19965;-83
2021/07/02 06:02:16;;;;;;;;;;;;;;;;;;5110135;28;19947;-83
2021/07/02 06:04:42;;;;;;;;;;;;;;;;;;5108578;28;20002;-82
2021/07/02 06:07:07;;;;;;;;;;;;;;;;;;5104621;28;20373;-82
2021/07/02 06:09:36;;;;;;;;;;;;;;;;;;5103982;28;20308;-82
2021/07/02 06:12:02;;;;;;;;;;;;;;;;;;5087652;28;19907;-82
2021/07/02 06:14:28;;;;;;;;;;;;;;;;;;5108338;28;20087;-81
2021/07/02 06:16:55;;;;;;;;;;;;;;;;;;5112692;28;19931;-82
2021/07/02 06:19:20;;;;;;;;;;;;;;;;;;5109352;28;20018;-83
2021/07/02 06:21:46;;;;;;;;;;;;;;;;;;5093629;28;19999;-82
2021/07/02 06:24:12;;;;;;;;;;;;;;;;;;5094395;28;20037;-82
2021/07/02 06:26:38;;;;;;;;;;;;;;;;;;5092305;28;19916;-84
2021/07/02 06:29:04;;;;;;;;;;;;;;;;;;5111732;28;20279;-86
2021/07/02 06:31:30;;;;;;;;;;;;;;;;;;5112695;28;19915;-83
2021/07/02 06:33:56;;;;;;;;;;;;;;;;;;5112128;28;20203;-83
2021/07/02 06:36:22;;;;;;;;;;;;;;;;;;5112651;28;19908;-82
2021/07/02 06:38:48;;;;;;;;;;;;;;;;;;5091962;28;19915;-83
2021/07/02 06:41:14;;;;;;;;;;;;;;;;;;5097399;27;20343;-83
2021/07/02 06:43:40;;;;;;;;;;;;;;;;;;5098617;27;20408;-85
2021/07/02 06:46:06;;;;;;;;;;;;;;;;;;5098045;27;19920;-82
2021/07/02 06:48:32;;;;;;;;;;;;;;;;;;5100819;27;19954;-84
2021/07/02 06:50:58;;;;;;;;;;;;;;;;;;5098607;28;19915;-85
2021/07/02 06:53:23;;;;;;;;;;;;;;;;;;5100921;27;19908;-84
2021/07/02 06:55:51;;;;;;;;;;;;;;;;;;5102574;28;19973;-84
2021/07/02 06:58:17;;;;;;;;;;;;;;;;;;5104078;27;20003;-84
2021/07/02 07:00:43;;;;;;;;;;;;;;;;;;5100583;27;20022;-85
2021/07/02 07:03:09;;;;;;;;;;;;;;;;;;5100466;27;19968;-83
2021/07/02 07:05:35;;;;;;;;;;;;;;;;;;5100342;27;19946;-82
2021/07/02 07:08:02;;;;;;;;;;;;;;;;;;5101514;28;19911;-84
2021/07/02 07:10:30;;;;;;;;;;;;;;;;;;5102010;28;19914;-84
2021/07/02 07:12:55;;;;;;;;;;;;;;;;;;5100387;27;19908;-85
2021/07/02 07:15:21;;;;;;;;;;;;;;;;;;5101980;27;19918;-83
2021/07/02 07:17:47;;;;;;;;;;;;;;;;;;5102562;27;19907;-84
2021/07/02 07:20:13;;;;;;;;;;;;;;;;;;5106245;27;19915;-85
2021/07/02 07:22:39;;;;;;;;;;;;;;;;;;5109800;28;19911;-85
2021/07/02 07:25:05;;;;;;;;;;;;;;;;;;5111845;28;19916;-84
2021/07/02 07:27:31;;;;;;;;;;;;;;;;;;5112054;28;19962;-85
2021/07/02 07:29:57;;;;;;;;;;;;;;;;;;5092005;28;19947;-85
2021/07/02 07:32:23;;;;;;;;;;;;;;;;;;5090223;28;19918;-84
2021/07/02 07:34:54;;;;;;;;;;;;;;;;;;5091199;28;20003;-86
2021/07/02 07:37:21;;;;;;;;;;;;;;;;;;5091574;28;19957;-84
2021/07/02 07:39:47;;;;;;;;;;;;;;;;;;5091337;28;19904;-85
2021/07/02 07:42:13;;;;;;;;;;;;;;;;;;5091479;28;19904;-85
2021/07/02 07:44:39;;;;;;;;;;;;;;;;;;5091768;28;19908;-84
2021/07/02 07:47:05;;;;;;;;;;;;;;;;;;5091859;28;19912;-85
2021/07/02 07:49:31;;;;;;;;;;;;;;;;;;5104484;28;19914;-84
2021/07/02 07:54:35;;;;;;;;;;;;;;;;;;5110868;28;19923;-84
2021/07/02 07:57:01;;;;;;;;;;;;;;;;;;5094410;28;19904;-85
2021/07/02 07:59:30;;;;;;;;;;;;;;;;;;5095004;28;20560;-85
2021/07/02 08:01:56;;;;;;;;;;;;;;;;;;5091397;28;19908;-84
2021/07/02 08:04:21;;;;;;;;;;;;;;;;;;5091637;28;19954;-86
2021/07/02 08:06:47;;;;;;;;;;;;;;;;;;5091507;28;19923;-83
2021/07/02 08:09:13;;;;;;;;;;;;;;;;;;5091124;28;19904;-82
2021/07/02 08:11:39;;;;;;;;;;;;;;;;;;5108115;28;19912;-83
2021/07/02 08:14:05;;;;;;;;;;;;;;;;;;5109576;28;20339;-82
2021/07/02 08:16:31;;;;;;;;;;;;;;;;;;5105281;28;19994;-83
2021/07/02 08:19:06;;;;;;;;;;;;;;;;;;5097660;28;19954;-85
2021/07/02 08:21:32;;;;;;;;;;;;;;;;;;5100945;28;20009;-84
2021/07/02 08:23:58;;;;;;;;;;;;;;;;;;5118681;28;19904;-83
2021/07/02 08:26:25;;;;;;;;;;;;;;;;;;5116728;28;20345;-83
2021/07/02 08:31:36;;;;;;;;;;;;;;;;;;5116397;28;20015;-85
2021/07/02 08:34:02;;;;;;;;;;;;;;;;;;5118493;28;19943;-84
2021/07/02 08:36:28;;;;;;;;;;;;;;;;;;5103371;28;19904;-86
2021/07/02 08:38:54;;;;;;;;;;;;;;;;;;5117915;28;19904;-86
2021/07/02 08:41:19;;;;;;;;;;;;;;;;;;5118359;28;19916;-83
2021/07/02 08:43:45;;;;;;;;;;;;;;;;;;5118709;28;19908;-84
2021/07/02 08:46:11;;;;;;;;;;;;;;;;;;5117416;28;20350;-85
2021/07/02 08:48:37;;;;;;;;;;;;;;;;;;5108508;28;19998;-84
2021/07/02 08:51:03;;;;;;;;;;;;;;;;;;5099518;28;19915;-84
2021/07/02 08:53:29;;;;;;;;;;;;;;;;;;5114499;28;20027;-84
2021/07/02 08:55:59;;;;;;;;;;;;;;;;;;5117012;28;19915;-83
2021/07/02 08:58:25;;;;;;;;;;;;;;;;;;5118019;28;19907;-83
2021/07/02 09:00:51;;;;;;;;;;;;;;;;;;5100167;28;19994;-84
2021/07/02 09:03:17;;;;;;;;;;;;;;;;;;5112183;27;19936;-83
2021/07/02 09:05:45;;;;;;;;;;;;;;;;;;5111313;28;20355;-81
2021/07/02 09:08:12;;;;;;;;;;;;;;;;;;5078240;28;19953;-79
2021/07/02 09:10:38;;;;;;;;;;;;;;;;;;5111183;28;19908;-81
2021/07/02 09:13:04;;;;;;;;;;;;;;;;;;5114756;28;19904;-80
2021/07/02 09:15:30;;;;;;;;;;;;;;;;;;5108652;28;19915;-81
2021/07/02 09:17:56;;;;;;;;;;;;;;;;;;5084332;28;19915;-82
2021/07/02 09:20:23;;;;;;;;;;;;;;;;;;5086258;28;19916;-80
2021/07/02 09:22:49;;;;;;;;;;;;;;;;;;5110811;28;20278;-80
2021/07/02 09:25:15;;;;;;;;;;;;;;;;;;5113022;28;19912;-81
2021/07/02 09:27:41;;;;;;;;;;;;;;;;;;5099413;28;19916;-81
2021/07/02 09:30:07;;;;;;;;;;;;;;;;;;5109908;28;20258;-79
2021/07/02 09:32:33;;;;;;;;;;;;;;;;;;5091442;28;19958;-81
2021/07/02 09:35:00;;;;;;;;;;;;;;;;;;5112240;28;19935;-81
2021/07/02 09:37:26;;;;;;;;;;;;;;;;;;5112588;28;19918;-79
2021/07/02 09:39:52;;;;;;;;;;;;;;;;;;5079691;28;19912;-79
2021/07/02 09:42:18;;;;;;;;;;;;;;;;;;5093713;28;19912;-79
2021/07/02 09:44:44;;;;;;;;;;;;;;;;;;5094242;28;19951;-78
2021/07/02 09:47:09;;;;;;;;;;;;;;;;;;5110013;28;19923;-79
2021/07/02 09:49:37;;;;;;;;;;;;;;;;;;5108611;28;20358;-80
2021/07/02 09:52:03;;;;;;;;;;;;;;;;;;5109168;28;20292;-80
2021/07/02 09:54:29;;;;;;;;;;;;;;;;;;5100068;28;19971;-80
2021/07/02 09:56:54;;;;;;;;;;;;;;;;;;5086240;28;19912;-81
2021/07/02 09:59:20;;;;;;;;;;;;;;;;;;5105847;28;19907;-79
2021/07/02 10:01:46;;;;;;;;;;;;;;;;;;5110784;28;19955;-79
2021/07/02 10:04:12;;;;;;;;;;;;;;;;;;5113372;28;19907;-80
2021/07/02 10:06:38;;;;;;;;;;;;;;;;;;5115575;28;20288;-91
2021/07/02 10:09:06;;;;;;;;;;;;;;;;;;5115303;28;19953;-90
2021/07/02 10:11:31;;;;;;;;;;;;;;;;;;5117149;28;19908;-88
2021/07/02 10:13:58;;;;;;;;;;;;;;;;;;5114037;28;19915;-86
2021/07/02 10:16:25;;;;;;;;;;;;;;;;;;5116704;28;19915;-87
2021/07/02 10:18:51;;;;;;;;;;;;;;;;;;5114443;28;19908;-85
2021/07/02 10:21:19;;;;;;;;;;;;;;;;;;5116849;28;20088;-87
2021/07/02 10:23:45;;;;;;;;;;;;;;;;;;5115354;28;19962;-88
2021/07/02 10:26:10;;;;;;;;;;;;;;;;;;5117729;28;19915;-88
2021/07/02 10:28:38;;;;;;;;;;;;;;;;;;5115602;28;20365;-86
2021/07/02 10:31:23;;;;;;;;;;;;;;;;;;5116220;28;19908;-88
2021/07/02 10:33:53;;;;;;;;;;;;;;;;;;5113603;28;19957;-87
2021/07/02 10:36:22;;;;;;;;;;;;;;;;;;5114516;28;19912;-79
2021/07/02 10:38:48;;;;;;;;;;;;;;;;;;5114538;27;19907;-86
2021/07/02 10:41:14;;;;;;;;;;;;;;;;;;5095772;28;19903;-87
2021/07/02 10:43:39;;;;;;;;;;;;;;;;;;5110521;28;19922;-85
2021/07/02 10:46:05;;;;;;;;;;;;;;;;;;5111657;28;20857;-85
2021/07/02 10:48:31;;;;;;;;;;;;;;;;;;5113713;28;19943;-85
2021/07/02 10:50:57;;;;;;;;;;;;;;;;;;5111690;28;19930;-84
2021/07/02 10:53:23;;;;;;;;;;;;;;;;;;5092280;28;19907;-83
2021/07/02 10:55:49;;;;;;;;;;;;;;;;;;5109640;28;20363;-84
2021/07/02 10:58:15;;;;;;;;;;;;;;;;;;5108297;28;19999;-85
2021/07/02 11:00:41;;;;;;;;;;;;;;;;;;5121030;27;20317;-85
2021/07/02 11:03:06;;;;;;;;;;;;;;;;;;5124527;27;19991;-84
2021/07/02 11:05:33;;;;;;;;;;;;;;;;;;5127408;27;19911;-83
2021/07/02 11:07:59;;;;;;;;;;;;;;;;;;5118770;27;19907;-84
2021/07/02 11:10:25;;;;;;;;;;;;;;;;;;5111500;28;20016;-83
2021/07/02 11:12:55;;;;;;;;;;;;;;;;;;5110891;28;19996;-83
2021/07/02 11:15:22;;;;;;;;;;;;;;;;;;5109713;27;19914;-85
2021/07/02 11:17:49;;;;;;;;;;;;;;;;;;5109960;28;19998;-86
2021/07/02 11:20:17;;;;;;;;;;;;;;;;;;5109818;28;19914;-85
2021/07/02 11:22:44;;;;;;;;;;;;;;;;;;5122847;27;19908;-84
2021/07/02 11:25:11;;;;;;;;;;;;;;;;;;5111581;28;19936;-84
2021/07/02 11:27:44;;;;;;;;;;;;;;;;;;5118539;27;19998;-84
2021/07/02 11:30:10;;;;;;;;;;;;;;;;;;5111704;28;19960;-84
2021/07/02 11:32:36;;;;;;;;;;;;;;;;;;5107404;27;20328;-86
2021/07/02 11:35:02;;;;;;;;;;;;;;;;;;5111352;27;19915;-85
2021/07/02 11:37:28;;;;;;;;;;;;;;;;;;5103499;28;20335;-85
2021/07/02 11:39:54;;;;;;;;;;;;;;;;;;5104658;27;19907;-85
2021/07/02 11:42:20;;;;;;;;;;;;;;;;;;5110074;28;20010;-81
2021/07/02 11:44:46;;;;;;;;;;;;;;;;;;5108007;27;19927;-82
2021/07/02 11:47:12;;;;;;;;;;;;;;;;;;5110816;28;19946;-80
2021/07/02 11:49:38;;;;;;;;;;;;;;;;;;5110173;28;20030;-81
2021/07/02 11:52:04;;;;;;;;;;;;;;;;;;5109926;28;19954;-81
2021/07/02 11:54:30;;;;;;;;;;;;;;;;;;5095843;28;19961;-81
2021/07/02 11:56:56;;;;;;;;;;;;;;;;;;5110446;28;19915;-80
2021/07/02 11:59:23;;;;;;;;;;;;;;;;;;5114269;27;19914;-79
2021/07/02 12:01:54;;;;;;;;;;;;;;;;;;5105859;28;20281;-81
2021/07/02 12:04:21;;;;;;;;;;;;;;;;;;5113588;28;20010;-82
2021/07/02 12:06:47;;;;;;;;;;;;;;;;;;5110633;28;20010;-82
2021/07/02 12:09:13;;;;;;;;;;;;;;;;;;5113135;28;19962;-82
2021/07/02 12:11:38;;;;;;;;;;;;;;;;;;5108701;28;20391;-81
2021/07/02 12:14:04;;;;;;;;;;;;;;;;;;5111188;28;19907;-82
2021/07/02 12:16:30;;;;;;;;;;;;;;;;;;5111115;28;19907;-82
2021/07/02 12:18:56;;;;;;;;;;;;;;;;;;5111645;28;19908;-82
2021/07/02 12:21:28;;;;;;;;;;;;;;;;;;5110305;28;19904;-81
2021/07/02 12:23:54;;;;;;;;;;;;;;;;;;5110579;28;19904;-82
2021/07/02 12:26:20;;;;;;;;;;;;;;;;;;5111406;28;20396;-81
2021/07/02 12:28:46;;;;;;;;;;;;;;;;;;5111474;28;19904;-80
2021/07/02 12:31:12;;;;;;;;;;;;;;;;;;5110724;28;19903;-80
2021/07/02 12:33:38;;;;;;;;;;;;;;;;;;5125020;28;20369;-81
2021/07/02 12:36:04;;;;;;;;;;;;;;;;;;5132114;28;19910;-82
2021/07/02 12:38:29;;;;;;;;;;;;;;;;;;5112370;28;19916;-82
2021/07/02 12:40:55;;;;;;;;;;;;;;;;;;5111251;28;20333;-82
2021/07/02 12:43:21;;;;;;;;;;;;;;;;;;5109841;28;19903;-81
2021/07/02 12:45:47;;;;;;;;;;;;;;;;;;5110724;28;19930;-82
2021/07/02 12:48:13;;;;;;;;;;;;;;;;;;5093555;28;19994;-82
2021/07/02 12:50:39;;;;;;;;;;;;;;;;;;5113982;28;20006;-82
2021/07/02 12:55:50;;;;;;;;;;;;;;;;;;5130755;28;20021;-82
2021/07/02 12:58:15;;;;;;;;;;;;;;;;;;5134038;27;19943;-82
2021/07/02 13:00:41;;;;;;;;;;;;;;;;;;5133790;27;20280;-82
2021/07/02 13:03:07;;;;;;;;;;;;;;;;;;5128156;27;19937;-81
2021/07/02 13:05:33;;;;;;;;;;;;;;;;;;5114543;28;20587;-81
2021/07/02 13:07:59;;;;;;;;;;;;;;;;;;5127421;27;19958;-81
2021/07/02 13:10:25;;;;;;;;;;;;;;;;;;5135879;27;19907;-82
2021/07/02 13:12:51;;;;;;;;;;;;;;;;;;5116277;27;19911;-82
2021/07/02 13:15:19;;;;;;;;;;;;;;;;;;5134787;27;20347;-82
2021/07/02 13:17:45;;;;;;;;;;;;;;;;;;5132144;27;19968;-81
2021/07/02 13:20:11;;;;;;;;;;;;;;;;;;5114534;28;19908;-81
2021/07/02 13:22:37;;;;;;;;;;;;;;;;;;5115410;28;19960;-82
2021/07/02 13:25:03;;;;;;;;;;;;;;;;;;5119409;27;19930;-82
2021/07/02 13:27:29;;;;;;;;;;;;;;;;;;5135562;27;20056;-82
2021/07/02 13:29:56;;;;;;;;;;;;;;;;;;5126241;27;19915;-83
2021/07/02 13:32:23;;;;;;;;;;;;;;;;;;5113275;27;20357;-82
2021/07/02 13:34:49;;;;;;;;;;;;;;;;;;5115306;28;19904;-83
2021/07/02 13:37:15;;;;;;;;;;;;;;;;;;5096864;28;20278;-82
2021/07/02 13:39:44;;;;;;;;;;;;;;;;;;5099126;28;19908;-82
2021/07/02 13:42:10;;;;;;;;;;;;;;;;;;5097148;28;20334;-83
2021/07/02 13:44:36;;;;;;;;;;;;;;;;;;5116659;28;20291;-84
2021/07/02 13:47:03;;;;;;;;;;;;;;;;;;5097193;28;19918;-81
2021/07/02 13:49:29;;;;;;;;;;;;;;;;;;5115217;28;20357;-83
2021/07/02 13:51:54;;;;;;;;;;;;;;;;;;5116333;28;19965;-81
2021/07/02 13:54:21;;;;;;;;;;;;;;;;;;5118901;28;19933;-84
2021/07/02 13:56:50;;;;;;;;;;;;;;;;;;5094570;28;19916;-83
2021/07/02 13:59:15;;;;;;;;;;;;;;;;;;5097181;28;19904;-84
2021/07/02 14:01:41;;;;;;;;;;;;;;;;;;5113427;27;19972;-83
2021/07/02 14:04:07;;;;;;;;;;;;;;;;;;5114205;28;19907;-82
2021/07/02 14:06:33;;;;;;;;;;;;;;;;;;5113909;28;20398;-82
2021/07/02 14:08:59;;;;;;;;;;;;;;;;;;5113680;27;19908;-83
2021/07/02 14:11:25;;;;;;;;;;;;;;;;;;5115358;28;19943;-82
2021/07/02 14:13:51;;;;;;;;;;;;;;;;;;5095533;28;20345;-83
2021/07/02 14:16:17;;;;;;;;;;;;;;;;;;5096752;28;19914;-83
2021/07/02 14:18:43;;;;;;;;;;;;;;;;;;5114051;28;19946;-83
2021/07/02 14:21:09;;;;;;;;;;;;;;;;;;5114505;28;19903;-84
2021/07/02 14:23:34;;;;;;;;;;;;;;;;;;5114302;28;19994;-82
2021/07/02 14:26:00;;;;;;;;;;;;;;;;;;5117246;27;19923;-84
2021/07/02 14:28:26;;;;;;;;;;;;;;;;;;5117356;28;20636;-81
2021/07/02 14:30:54;;;;;;;;;;;;;;;;;;5095539;28;19910;-84
2021/07/02 14:33:20;;;;;;;;;;;;;;;;;;5097930;28;19908;-84
2021/07/02 14:35:47;;;;;;;;;;;;;;;;;;5108832;28;19978;-83
2021/07/02 14:38:12;;;;;;;;;;;;;;;;;;5115260;28;20353;-84
2021/07/02 14:40:38;;;;;;;;;;;;;;;;;;5097338;28;19911;-84
2021/07/02 14:43:04;;;;;;;;;;;;;;;;;;5116704;28;19904;-83
2021/07/02 14:45:30;;;;;;;;;;;;;;;;;;5115524;27;19919;-84
2021/07/02 14:47:56;;;;;;;;;;;;;;;;;;5114911;27;19907;-84
2021/07/02 14:50:22;;;;;;;;;;;;;;;;;;5136760;27;19994;-85
2021/07/02 14:52:50;;;;;;;;;;;;;;;;;;5135702;27;19910;-83
2021/07/02 14:55:15;;;;;;;;;;;;;;;;;;5132704;27;19911;-84
2021/07/02 14:57:41;;;;;;;;;;;;;;;;;;5135722;27;19926;-84
2021/07/02 15:00:07;;;;;;;;;;;;;;;;;;5134191;27;20357;-83
2021/07/02 15:02:34;;;;;;;;;;;;;;;;;;5119942;27;19907;-83
2021/07/02 15:05:00;;;;;;;;;;;;;;;;;;5115013;28;19908;-88
2021/07/02 15:07:27;;;;;;;;;;;;;;;;;;5096597;28;20406;-86
2021/07/02 15:09:53;;;;;;;;;;;;;;;;;;5126590;27;19907;-86
2021/07/02 15:12:19;;;;;;;;;;;;;;;;;;5132624;27;19911;-86
2021/07/02 15:14:44;;;;;;;;;;;;;;;;;;5140881;27;19903;-85
2021/07/02 15:17:10;;;;;;;;;;;;;;;;;;5137602;27;19907;-87
2021/07/02 15:19:36;;;;;;;;;;;;;;;;;;5135558;27;20016;-87
2021/07/02 15:22:02;;;;;;;;;;;;;;;;;;5114067;27;19924;-86
2021/07/02 15:24:28;;;;;;;;;;;;;;;;;;5137379;27;19904;-85
2021/07/02 15:26:54;;;;;;;;;;;;;;;;;;5117343;27;19960;-87
2021/07/02 15:29:20;;;;;;;;;;;;;;;;;;5138732;27;19907;-86
2021/07/02 15:31:46;;;;;;;;;;;;;;;;;;5134532;27;19903;-85
2021/07/02 15:34:12;;;;;;;;;;;;;;;;;;5094607;28;20350;-86
2021/07/02 15:36:38;;;;;;;;;;;;;;;;;;5094347;28;20350;-87
2021/07/02 15:39:03;;;;;;;;;;;;;;;;;;5093160;28;19908;-86
2021/07/02 15:41:29;;;;;;;;;;;;;;;;;;5093486;28;19923;-86
2021/07/02 15:43:56;;;;;;;;;;;;;;;;;;5091609;28;19987;-86
2021/07/02 15:46:22;;;;;;;;;;;;;;;;;;5094228;28;20010;-87
2021/07/02 15:48:47;;;;;;;;;;;;;;;;;;5113235;28;19908;-86
2021/07/02 15:51:14;;;;;;;;;;;;;;;;;;5114313;28;19907;-87
2021/07/02 15:53:40;;;;;;;;;;;;;;;;;;5112206;28;19957;-86
2021/07/02 15:56:06;;;;;;;;;;;;;;;;;;5112728;28;19916;-86
2021/07/02 15:58:32;;;;;;;;;;;;;;;;;;5112140;28;19907;-83
2021/07/02 16:00:58;;;;;;;;;;;;;;;;;;5117307;27;19911;-87
2021/07/02 16:03:23;;;;;;;;;;;;;;;;;;5115314;27;19907;-85
2021/07/02 16:05:49;;;;;;;;;;;;;;;;;;5123160;27;19968;-86
2021/07/02 16:08:15;;;;;;;;;;;;;;;;;;5115342;28;19903;-86
2021/07/02 16:10:41;;;;;;;;;;;;;;;;;;5113251;28;19914;-86
2021/07/02 16:13:07;;;;;;;;;;;;;;;;;;5111400;28;19912;-83
2021/07/02 16:15:33;;;;;;;;;;;;;;;;;;5109211;28;20163;-85
2021/07/02 16:18:03;;;;;;;;;;;;;;;;;;5114966;28;19903;-86
2021/07/02 16:20:29;;;;;;;;;;;;;;;;;;5113839;28;19904;-86
2021/07/02 16:22:55;;;;;;;;;;;;;;;;;;5113156;28;19912;-85
2021/07/02 16:25:20;;;;;;;;;;;;;;;;;;5112265;28;19916;-86
2021/07/02 16:27:46;;;;;;;;;;;;;;;;;;5111419;28;19953;-87
2021/07/02 16:30:13;;;;;;;;;;;;;;;;;;5113171;28;19910;-85
2021/07/02 16:32:39;;;;;;;;;;;;;;;;;;5095367;28;19903;-85
2021/07/02 16:35:05;;;;;;;;;;;;;;;;;;5119491;27;19911;-87
2021/07/02 16:37:31;;;;;;;;;;;;;;;;;;5136400;27;20245;-87
2021/07/02 16:39:58;;;;;;;;;;;;;;;;;;5137081;27;19900;-86
2021/07/02 16:42:24;;;;;;;;;;;;;;;;;;5136125;27;20374;-86
2021/07/02 16:44:50;;;;;;;;;;;;;;;;;;5118564;27;19907;-86
2021/07/02 16:47:16;;;;;;;;;;;;;;;;;;5114447;28;20346;-86